sensor_id;sensor_type;location;lat;lon;timestamp;temperature;humidity
60234;DHT22;49514;43.538;-5.708;2023-03-12T00:01:17;17.30;99.90
60234;DHT22;49514;43.538;-5.708;2023-03-12T00:03:44;17.30;99.90
60234;DHT22;49514;43.538;-5.708;2023-03-12T00:06:11;17.20;99.90
60234;DHT22;49514;43.538;-5.708;2023-03-12T00:08:38;17.20;99.90
60234;DHT22;49514;43.538;-5.708;2023-03-12T00:11:11;17.20;99.90
60234;DHT22;49514;43.538;-5.708;2023-03-12T00:13:38;17.10;99.90
60234;DHT22;49514;43.538;-5.708;2023-03-12T00:16:05;17.00;99.90
60234;DHT22;49514;43.538;-5.708;2023-03-12T00:18:32;17.00;99.90
60234;DHT22;49514;43.538;-5.708;2023-03-12T00:20:59;16.90;99.90
60234;DHT22;49514;43.538;-5.708;2023-03-12T00:23:25;16.80;99.90
60234;DHT22;49514;43.538;-5.708;2023-03-12T00:25:51;16.70;99.90
60234;DHT22;49514;43.538;-5.708;2023-03-12T00:28:18;16.60;99.90
60234;DHT22;49514;43.538;-5.708;2023-03-12T00:30:45;16.50;99.90
60234;DHT22;49514;43.538;-5.708;2023-03-12T00:33:11;16.40;99.90
60234;DHT22;49514;43.538;-5.708;2023-03-12T00:35:38;16.30;99.90
60234;DHT22;49514;43.538;-5.708;2023-03-12T00:38:04;16.30;99.90
60234;DHT22;49514;43.538;-5.708;2023-03-12T00:40:30;16.20;99.90
60234;DHT22;49514;43.538;-5.708;2023-03-12T00:42:57;16.20;99.90
60234;DHT22;49514;43.538;-5.708;2023-03-12T00:45:23;16.20;99.90
60234;DHT22;49514;43.538;-5.708;2023-03-12T00:47:50;16.10;99.90
60234;DHT22;49514;43.538;-5.708;2023-03-12T00:50:17;16.10;99.90
60234;DHT22;49514;43.538;-5.708;2023-03-12T00:52:43;16.10;99.90
60234;DHT22;49514;43.538;-5.708;2023-03-12T00:55:10;16.10;99.90
60234;DHT22;49514;43.538;-5.708;2023-03-12T00:57:36;16.00;99.90
60234;DHT22;49514;43.538;-5.708;2023-03-12T01:00:04;15.90;99.90
60234;DHT22;49514;43.538;-5.708;2023-03-12T01:02:37;15.90;99.90
60234;DHT22;49514;43.538;-5.708;2023-03-12T01:05:05;15.90;99.90
60234;DHT22;49514;43.538;-5.708;2023-03-12T01:07:32;15.80;99.90
60234;DHT22;49514;43.538;-5.708;2023-03-12T01:09:59;15.80;99.90
60234;DHT22;49514;43.538;-5.708;2023-03-12T01:12:25;15.70;99.90
60234;DHT22;49514;43.538;-5.708;2023-03-12T01:14:52;15.70;99.90
60234;DHT22;49514;43.538;-5.708;2023-03-12T01:17:18;15.60;99.90
60234;DHT22;49514;43.538;-5.708;2023-03-12T01:19:45;15.60;99.90
60234;DHT22;49514;43.538;-5.708;2023-03-12T01:22:11;15.60;99.90
60234;DHT22;49514;43.538;-5.708;2023-03-12T01:24:37;15.60;99.90
60234;DHT22;49514;43.538;-5.708;2023-03-12T01:27:04;15.50;99.90
60234;DHT22;49514;43.538;-5.708;2023-03-12T01:29:30;15.50;99.90
60234;DHT22;49514;43.538;-5.708;2023-03-12T01:31:58;15.50;99.90
60234;DHT22;49514;43.538;-5.708;2023-03-12T01:34:24;15.40;99.90
60234;DHT22;49514;43.538;-5.708;2023-03-12T01:36:50;15.30;99.90
60234;DHT22;49514;43.538;-5.708;2023-03-12T01:39:17;15.30;99.90
60234;DHT22;49514;43.538;-5.708;2023-03-12T01:41:43;15.30;99.90
60234;DHT22;49514;43.538;-5.708;2023-03-12T01:44:12;15.20;99.90
60234;DHT22;49514;43.538;-5.708;2023-03-12T01:46:40;15.20;99.90
60234;DHT22;49514;43.538;-5.708;2023-03-12T01:49:23;15.10;99.90
60234;DHT22;49514;43.538;-5.708;2023-03-12T01:56:50;15.10;99.90
60234;DHT22;49514;43.538;-5.708;2023-03-12T01:59:28;15.10;99.90
60234;DHT22;49514;43.538;-5.708;2023-03-12T02:01:55;15.10;99.90
60234;DHT22;49514;43.538;-5.708;2023-03-12T02:04:23;15.00;99.90
60234;DHT22;49514;43.538;-5.708;2023-03-12T02:06:52;15.00;99.90
60234;DHT22;49514;43.538;-5.708;2023-03-12T02:09:23;14.90;99.90
60234;DHT22;49514;43.538;-5.708;2023-03-12T02:11:50;14.90;99.90
60234;DHT22;49514;43.538;-5.708;2023-03-12T02:14:18;14.90;99.90
60234;DHT22;49514;43.538;-5.708;2023-03-12T02:16:44;14.80;99.90
60234;DHT22;49514;43.538;-5.708;2023-03-12T02:22:07;14.70;99.90
60234;DHT22;49514;43.538;-5.708;2023-03-12T02:27:01;14.70;99.90
60234;DHT22;49514;43.538;-5.708;2023-03-12T02:29:28;14.60;99.90
60234;DHT22;49514;43.538;-5.708;2023-03-12T02:31:56;14.60;99.90
60234;DHT22;49514;43.538;-5.708;2023-03-12T02:34:23;14.60;99.90
60234;DHT22;49514;43.538;-5.708;2023-03-12T02:36:50;14.60;99.90
60234;DHT22;49514;43.538;-5.708;2023-03-12T02:39:16;14.60;99.90
60234;DHT22;49514;43.538;-5.708;2023-03-12T02:41:43;14.60;99.90
60234;DHT22;49514;43.538;-5.708;2023-03-12T02:44:12;14.50;99.90
60234;DHT22;49514;43.538;-5.708;2023-03-12T02:46:41;14.50;99.90
60234;DHT22;49514;43.538;-5.708;2023-03-12T02:49:07;14.50;99.90
60234;DHT22;49514;43.538;-5.708;2023-03-12T02:51:34;14.50;99.90
60234;DHT22;49514;43.538;-5.708;2023-03-12T02:54:01;14.40;99.90
60234;DHT22;49514;43.538;-5.708;2023-03-12T02:56:28;14.40;99.90
60234;DHT22;49514;43.538;-5.708;2023-03-12T02:58:55;14.50;99.90
60234;DHT22;49514;43.538;-5.708;2023-03-12T03:01:22;14.50;99.90
60234;DHT22;49514;43.538;-5.708;2023-03-12T03:03:49;14.50;99.90
60234;DHT22;49514;43.538;-5.708;2023-03-12T03:06:15;14.50;99.90
60234;DHT22;49514;43.538;-5.708;2023-03-12T03:08:42;14.60;99.90
60234;DHT22;49514;43.538;-5.708;2023-03-12T03:11:08;14.60;99.90
60234;DHT22;49514;43.538;-5.708;2023-03-12T03:13:35;14.60;99.90
60234;DHT22;49514;43.538;-5.708;2023-03-12T03:16:02;14.60;99.90
60234;DHT22;49514;43.538;-5.708;2023-03-12T03:18:29;14.60;99.90
60234;DHT22;49514;43.538;-5.708;2023-03-12T03:21:00;14.70;99.90
60234;DHT22;49514;43.538;-5.708;2023-03-12T03:23:27;14.70;99.90
60234;DHT22;49514;43.538;-5.708;2023-03-12T03:25:53;14.60;99.90
60234;DHT22;49514;43.538;-5.708;2023-03-12T03:28:21;14.80;99.90
60234;DHT22;49514;43.538;-5.708;2023-03-12T03:30:50;14.90;99.90
60234;DHT22;49514;43.538;-5.708;2023-03-12T03:33:17;14.90;99.90
60234;DHT22;49514;43.538;-5.708;2023-03-12T03:35:44;15.00;99.90
60234;DHT22;49514;43.538;-5.708;2023-03-12T03:38:11;15.00;99.90
60234;DHT22;49514;43.538;-5.708;2023-03-12T03:40:38;15.00;99.90
60234;DHT22;49514;43.538;-5.708;2023-03-12T03:43:04;15.00;99.90
60234;DHT22;49514;43.538;-5.708;2023-03-12T03:45:31;15.00;99.90
60234;DHT22;49514;43.538;-5.708;2023-03-12T03:47:59;15.10;99.90
60234;DHT22;49514;43.538;-5.708;2023-03-12T03:50:26;15.10;99.90
60234;DHT22;49514;43.538;-5.708;2023-03-12T03:52:53;15.20;99.90
60234;DHT22;49514;43.538;-5.708;2023-03-12T03:55:20;15.20;99.90
60234;DHT22;49514;43.538;-5.708;2023-03-12T03:57:47;15.10;99.90
60234;DHT22;49514;43.538;-5.708;2023-03-12T04:00:14;15.10;99.90
60234;DHT22;49514;43.538;-5.708;2023-03-12T04:02:46;15.10;99.90
60234;DHT22;49514;43.538;-5.708;2023-03-12T04:05:14;15.10;99.90
60234;DHT22;49514;43.538;-5.708;2023-03-12T04:07:44;15.00;99.90
60234;DHT22;49514;43.538;-5.708;2023-03-12T04:10:13;15.00;99.90
60234;DHT22;49514;43.538;-5.708;2023-03-12T04:12:40;15.10;99.90
60234;DHT22;49514;43.538;-5.708;2023-03-12T04:15:07;15.00;99.90
60234;DHT22;49514;43.538;-5.708;2023-03-12T04:17:34;15.10;99.90
60234;DHT22;49514;43.538;-5.708;2023-03-12T04:20:03;15.10;99.90
60234;DHT22;49514;43.538;-5.708;2023-03-12T04:22:32;15.00;99.90
60234;DHT22;49514;43.538;-5.708;2023-03-12T04:24:59;15.00;99.90
60234;DHT22;49514;43.538;-5.708;2023-03-12T04:27:25;14.90;99.90
60234;DHT22;49514;43.538;-5.708;2023-03-12T04:29:52;14.90;99.90
60234;DHT22;49514;43.538;-5.708;2023-03-12T04:32:18;14.80;99.90
60234;DHT22;49514;43.538;-5.708;2023-03-12T04:34:47;14.80;99.90
60234;DHT22;49514;43.538;-5.708;2023-03-12T04:37:16;14.80;99.90
60234;DHT22;49514;43.538;-5.708;2023-03-12T04:39:42;14.90;99.90
60234;DHT22;49514;43.538;-5.708;2023-03-12T04:42:09;14.90;99.90
60234;DHT22;49514;43.538;-5.708;2023-03-12T04:44:36;14.90;99.90
60234;DHT22;49514;43.538;-5.708;2023-03-12T04:47:03;14.90;99.90
60234;DHT22;49514;43.538;-5.708;2023-03-12T04:49:30;14.90;99.90
60234;DHT22;49514;43.538;-5.708;2023-03-12T04:51:56;14.90;99.90
60234;DHT22;49514;43.538;-5.708;2023-03-12T04:54:23;15.00;99.90
60234;DHT22;49514;43.538;-5.708;2023-03-12T04:56:49;15.00;99.90
60234;DHT22;49514;43.538;-5.708;2023-03-12T04:59:16;14.90;99.90
60234;DHT22;49514;43.538;-5.708;2023-03-12T05:01:46;14.90;99.90
60234;DHT22;49514;43.538;-5.708;2023-03-12T05:04:18;14.90;99.90
60234;DHT22;49514;43.538;-5.708;2023-03-12T05:06:44;15.00;99.90
60234;DHT22;49514;43.538;-5.708;2023-03-12T05:09:11;14.90;99.90
60234;DHT22;49514;43.538;-5.708;2023-03-12T05:11:37;15.00;99.90
60234;DHT22;49514;43.538;-5.708;2023-03-12T05:14:04;15.00;99.90
60234;DHT22;49514;43.538;-5.708;2023-03-12T05:16:30;15.00;99.90
60234;DHT22;49514;43.538;-5.708;2023-03-12T05:18:57;14.90;99.90
60234;DHT22;49514;43.538;-5.708;2023-03-12T05:21:24;15.00;99.90
60234;DHT22;49514;43.538;-5.708;2023-03-12T05:23:53;15.00;99.90
60234;DHT22;49514;43.538;-5.708;2023-03-12T05:26:21;15.00;99.90
60234;DHT22;49514;43.538;-5.708;2023-03-12T05:28:50;15.00;99.90
60234;DHT22;49514;43.538;-5.708;2023-03-12T05:31:18;15.00;99.90
60234;DHT22;49514;43.538;-5.708;2023-03-12T05:33:45;15.00;99.90
60234;DHT22;49514;43.538;-5.708;2023-03-12T05:36:12;15.00;99.90
60234;DHT22;49514;43.538;-5.708;2023-03-12T05:38:39;14.90;99.90
60234;DHT22;49514;43.538;-5.708;2023-03-12T05:41:06;14.90;99.90
60234;DHT22;49514;43.538;-5.708;2023-03-12T05:43:35;14.80;99.90
60234;DHT22;49514;43.538;-5.708;2023-03-12T05:46:02;14.80;99.90
60234;DHT22;49514;43.538;-5.708;2023-03-12T05:48:29;14.70;99.90
60234;DHT22;49514;43.538;-5.708;2023-03-12T05:50:57;14.70;99.90
60234;DHT22;49514;43.538;-5.708;2023-03-12T05:53:24;14.70;99.90
60234;DHT22;49514;43.538;-5.708;2023-03-12T05:55:52;14.70;99.90
60234;DHT22;49514;43.538;-5.708;2023-03-12T05:58:19;14.70;99.90
60234;DHT22;49514;43.538;-5.708;2023-03-12T06:00:45;14.70;99.90
60234;DHT22;49514;43.538;-5.708;2023-03-12T06:03:13;14.70;99.90
60234;DHT22;49514;43.538;-5.708;2023-03-12T06:05:40;14.70;99.90
60234;DHT22;49514;43.538;-5.708;2023-03-12T06:08:09;14.70;99.90
60234;DHT22;49514;43.538;-5.708;2023-03-12T06:10:37;14.70;99.90
60234;DHT22;49514;43.538;-5.708;2023-03-12T06:13:04;14.70;99.90
60234;DHT22;49514;43.538;-5.708;2023-03-12T06:15:30;14.70;99.90
60234;DHT22;49514;43.538;-5.708;2023-03-12T06:17:57;14.70;99.90
60234;DHT22;49514;43.538;-5.708;2023-03-12T06:20:23;14.70;99.90
60234;DHT22;49514;43.538;-5.708;2023-03-12T06:22:50;14.70;99.90
60234;DHT22;49514;43.538;-5.708;2023-03-12T06:25:17;14.80;99.90
60234;DHT22;49514;43.538;-5.708;2023-03-12T06:27:43;14.80;99.90
60234;DHT22;49514;43.538;-5.708;2023-03-12T06:30:10;14.80;99.90
60234;DHT22;49514;43.538;-5.708;2023-03-12T06:32:37;14.80;99.90
60234;DHT22;49514;43.538;-5.708;2023-03-12T06:35:03;14.90;99.90
60234;DHT22;49514;43.538;-5.708;2023-03-12T06:37:30;14.90;99.90
60234;DHT22;49514;43.538;-5.708;2023-03-12T06:39:57;14.90;99.90
60234;DHT22;49514;43.538;-5.708;2023-03-12T06:42:23;14.90;99.90
60234;DHT22;49514;43.538;-5.708;2023-03-12T06:44:51;14.90;99.90
60234;DHT22;49514;43.538;-5.708;2023-03-12T06:47:18;14.80;99.90
60234;DHT22;49514;43.538;-5.708;2023-03-12T06:49:45;14.80;99.90
60234;DHT22;49514;43.538;-5.708;2023-03-12T06:52:11;14.80;99.90
60234;DHT22;49514;43.538;-5.708;2023-03-12T06:54:37;14.80;99.90
60234;DHT22;49514;43.538;-5.708;2023-03-12T06:57:04;14.90;99.90
60234;DHT22;49514;43.538;-5.708;2023-03-12T06:59:30;15.00;99.90
60234;DHT22;49514;43.538;-5.708;2023-03-12T07:01:57;15.10;99.90
60234;DHT22;49514;43.538;-5.708;2023-03-12T07:04:23;15.10;99.90
60234;DHT22;49514;43.538;-5.708;2023-03-12T07:06:50;15.20;99.90
60234;DHT22;49514;43.538;-5.708;2023-03-12T07:09:17;15.30;99.90
60234;DHT22;49514;43.538;-5.708;2023-03-12T07:11:43;15.40;99.90
60234;DHT22;49514;43.538;-5.708;2023-03-12T07:14:09;15.40;99.90
60234;DHT22;49514;43.538;-5.708;2023-03-12T07:16:36;15.40;99.90
60234;DHT22;49514;43.538;-5.708;2023-03-12T07:19:03;15.60;99.90
60234;DHT22;49514;43.538;-5.708;2023-03-12T07:21:30;15.70;99.90
60234;DHT22;49514;43.538;-5.708;2023-03-12T07:23:57;15.70;99.90
60234;DHT22;49514;43.538;-5.708;2023-03-12T07:26:24;15.70;99.90
60234;DHT22;49514;43.538;-5.708;2023-03-12T07:28:50;15.80;99.90
60234;DHT22;49514;43.538;-5.708;2023-03-12T07:31:17;15.90;99.90
60234;DHT22;49514;43.538;-5.708;2023-03-12T07:33:43;15.90;99.90
60234;DHT22;49514;43.538;-5.708;2023-03-12T07:36:10;16.00;99.90
60234;DHT22;49514;43.538;-5.708;2023-03-12T07:38:37;16.10;99.90
60234;DHT22;49514;43.538;-5.708;2023-03-12T07:41:03;16.10;99.90
60234;DHT22;49514;43.538;-5.708;2023-03-12T07:43:30;16.20;99.90
60234;DHT22;49514;43.538;-5.708;2023-03-12T07:45:56;16.30;99.90
60234;DHT22;49514;43.538;-5.708;2023-03-12T07:48:23;16.40;99.90
60234;DHT22;49514;43.538;-5.708;2023-03-12T07:50:51;16.50;99.90
60234;DHT22;49514;43.538;-5.708;2023-03-12T07:53:17;16.50;99.90
60234;DHT22;49514;43.538;-5.708;2023-03-12T07:55:45;16.60;99.90
60234;DHT22;49514;43.538;-5.708;2023-03-12T07:58:12;16.60;99.90
60234;DHT22;49514;43.538;-5.708;2023-03-12T08:00:38;16.60;99.90
60234;DHT22;49514;43.538;-5.708;2023-03-12T08:03:05;16.70;99.90
60234;DHT22;49514;43.538;-5.708;2023-03-12T08:05:31;16.80;99.90
60234;DHT22;49514;43.538;-5.708;2023-03-12T08:07:57;16.80;99.90
60234;DHT22;49514;43.538;-5.708;2023-03-12T08:10:24;16.90;99.90
60234;DHT22;49514;43.538;-5.708;2023-03-12T08:12:51;17.00;99.90
60234;DHT22;49514;43.538;-5.708;2023-03-12T08:15:17;17.10;99.90
60234;DHT22;49514;43.538;-5.708;2023-03-12T08:17:44;17.10;99.90
60234;DHT22;49514;43.538;-5.708;2023-03-12T08:20:11;17.20;99.90
60234;DHT22;49514;43.538;-5.708;2023-03-12T08:22:38;17.30;99.90
60234;DHT22;49514;43.538;-5.708;2023-03-12T08:25:04;17.40;99.90
60234;DHT22;49514;43.538;-5.708;2023-03-12T08:27:31;17.40;99.90
60234;DHT22;49514;43.538;-5.708;2023-03-12T08:29:59;17.60;99.90
60234;DHT22;49514;43.538;-5.708;2023-03-12T08:32:26;17.60;99.90
60234;DHT22;49514;43.538;-5.708;2023-03-12T08:34:52;17.70;99.90
60234;DHT22;49514;43.538;-5.708;2023-03-12T08:37:19;17.70;99.90
60234;DHT22;49514;43.538;-5.708;2023-03-12T08:39:45;17.80;99.90
60234;DHT22;49514;43.538;-5.708;2023-03-12T08:42:12;17.90;99.90
60234;DHT22;49514;43.538;-5.708;2023-03-12T08:44:38;17.90;99.90
60234;DHT22;49514;43.538;-5.708;2023-03-12T08:47:05;18.00;99.90
60234;DHT22;49514;43.538;-5.708;2023-03-12T08:49:32;18.00;99.90
60234;DHT22;49514;43.538;-5.708;2023-03-12T08:51:58;18.00;99.90
60234;DHT22;49514;43.538;-5.708;2023-03-12T08:54:25;18.00;99.90
60234;DHT22;49514;43.538;-5.708;2023-03-12T08:56:52;18.00;99.90
60234;DHT22;49514;43.538;-5.708;2023-03-12T08:59:19;18.00;99.90
60234;DHT22;49514;43.538;-5.708;2023-03-12T09:01:45;18.00;99.90
60234;DHT22;49514;43.538;-5.708;2023-03-12T09:04:12;18.00;99.90
60234;DHT22;49514;43.538;-5.708;2023-03-12T09:06:38;18.00;99.90
60234;DHT22;49514;43.538;-5.708;2023-03-12T09:09:06;17.90;99.90
60234;DHT22;49514;43.538;-5.708;2023-03-12T09:11:35;17.90;99.90
60234;DHT22;49514;43.538;-5.708;2023-03-12T09:14:02;17.90;99.90
60234;DHT22;49514;43.538;-5.708;2023-03-12T09:16:28;17.90;99.90
60234;DHT22;49514;43.538;-5.708;2023-03-12T09:18:56;17.90;99.90
60234;DHT22;49514;43.538;-5.708;2023-03-12T09:21:22;18.00;99.90
60234;DHT22;49514;43.538;-5.708;2023-03-12T09:23:48;18.00;99.90
60234;DHT22;49514;43.538;-5.708;2023-03-12T09:26:15;17.90;99.90
60234;DHT22;49514;43.538;-5.708;2023-03-12T09:28:41;17.80;99.90
60234;DHT22;49514;43.538;-5.708;2023-03-12T09:31:09;17.70;99.90
60234;DHT22;49514;43.538;-5.708;2023-03-12T09:33:36;17.60;99.90
60234;DHT22;49514;43.538;-5.708;2023-03-12T09:36:03;17.50;99.90
60234;DHT22;49514;43.538;-5.708;2023-03-12T09:38:30;17.40;99.90
60234;DHT22;49514;43.538;-5.708;2023-03-12T09:40:57;17.30;99.90
60234;DHT22;49514;43.538;-5.708;2023-03-12T09:43:40;17.30;99.90
60234;DHT22;49514;43.538;-5.708;2023-03-12T09:46:10;17.30;99.90
60234;DHT22;49514;43.538;-5.708;2023-03-12T09:48:37;17.10;99.90
60234;DHT22;49514;43.538;-5.708;2023-03-12T09:51:05;17.20;99.90
60234;DHT22;49514;43.538;-5.708;2023-03-12T09:53:34;17.10;99.90
60234;DHT22;49514;43.538;-5.708;2023-03-12T09:56:03;17.20;99.90
60234;DHT22;49514;43.538;-5.708;2023-03-12T09:58:35;17.10;99.90
60234;DHT22;49514;43.538;-5.708;2023-03-12T10:01:46;17.10;99.90
60234;DHT22;49514;43.538;-5.708;2023-03-12T10:11:57;17.20;99.90
60234;DHT22;49514;43.538;-5.708;2023-03-12T10:17:15;17.30;99.90
60234;DHT22;49514;43.538;-5.708;2023-03-12T10:20:09;17.30;99.90
60234;DHT22;49514;43.538;-5.708;2023-03-12T10:22:52;17.30;99.90
60234;DHT22;49514;43.538;-5.708;2023-03-12T10:27:54;17.50;99.90
60234;DHT22;49514;43.538;-5.708;2023-03-12T10:30:24;17.60;99.90
60234;DHT22;49514;43.538;-5.708;2023-03-12T10:33:01;17.60;99.90
60234;DHT22;49514;43.538;-5.708;2023-03-12T10:35:29;17.70;99.90
60234;DHT22;49514;43.538;-5.708;2023-03-12T10:37:57;17.70;99.90
60234;DHT22;49514;43.538;-5.708;2023-03-12T10:40:26;17.80;99.90
60234;DHT22;49514;43.538;-5.708;2023-03-12T10:42:53;17.80;99.90
60234;DHT22;49514;43.538;-5.708;2023-03-12T10:45:31;17.90;99.90
60234;DHT22;49514;43.538;-5.708;2023-03-12T10:48:02;17.90;99.90
60234;DHT22;49514;43.538;-5.708;2023-03-12T10:50:30;17.90;99.90
60234;DHT22;49514;43.538;-5.708;2023-03-12T10:55:42;18.10;99.90
60234;DHT22;49514;43.538;-5.708;2023-03-12T10:58:20;18.10;99.90
60234;DHT22;49514;43.538;-5.708;2023-03-12T11:00:54;18.20;99.90
60234;DHT22;49514;43.538;-5.708;2023-03-12T11:03:22;18.20;99.90
60234;DHT22;49514;43.538;-5.708;2023-03-12T11:05:49;18.30;99.90
60234;DHT22;49514;43.538;-5.708;2023-03-12T11:08:19;18.40;99.90
60234;DHT22;49514;43.538;-5.708;2023-03-12T11:10:46;18.60;99.90
60234;DHT22;49514;43.538;-5.708;2023-03-12T11:13:29;18.80;99.90
60234;DHT22;49514;43.538;-5.708;2023-03-12T11:16:00;18.90;99.90
60234;DHT22;49514;43.538;-5.708;2023-03-12T11:18:31;19.10;99.90
60234;DHT22;49514;43.538;-5.708;2023-03-12T11:23:33;19.30;99.90
60234;DHT22;49514;43.538;-5.708;2023-03-12T11:26:04;19.30;99.90
60234;DHT22;49514;43.538;-5.708;2023-03-12T11:28:38;19.40;99.90
60234;DHT22;49514;43.538;-5.708;2023-03-12T11:31:12;19.40;99.90
60234;DHT22;49514;43.538;-5.708;2023-03-12T11:33:40;19.40;99.90
60234;DHT22;49514;43.538;-5.708;2023-03-12T11:41:32;19.80;99.90
60234;DHT22;49514;43.538;-5.708;2023-03-12T11:47:02;20.00;99.90
60234;DHT22;49514;43.538;-5.708;2023-03-12T12:00:21;21.50;99.90
60234;DHT22;49514;43.538;-5.708;2023-03-12T12:03:30;21.60;99.90
60234;DHT22;49514;43.538;-5.708;2023-03-12T12:06:08;21.70;99.90
60234;DHT22;49514;43.538;-5.708;2023-03-12T12:09:06;21.80;99.90
60234;DHT22;49514;43.538;-5.708;2023-03-12T12:14:30;22.20;99.90
60234;DHT22;49514;43.538;-5.708;2023-03-12T12:28:45;22.80;99.90
60234;DHT22;49514;43.538;-5.708;2023-03-12T12:40:16;24.20;99.90
60234;DHT22;49514;43.538;-5.708;2023-03-12T12:45:41;25.00;99.90
60234;DHT22;49514;43.538;-5.708;2023-03-12T12:50:54;26.40;99.90
60234;DHT22;49514;43.538;-5.708;2023-03-12T12:56:12;27.50;99.90
60234;DHT22;49514;43.538;-5.708;2023-03-12T13:01:09;29.00;99.90
60234;DHT22;49514;43.538;-5.708;2023-03-12T13:03:36;30.00;99.90
60234;DHT22;49514;43.538;-5.708;2023-03-12T13:06:05;30.80;99.90
60234;DHT22;49514;43.538;-5.708;2023-03-12T13:11:44;32.80;99.90
60234;DHT22;49514;43.538;-5.708;2023-03-12T13:14:17;34.70;98.90
60234;DHT22;49514;43.538;-5.708;2023-03-12T13:16:45;36.10;97.10
60234;DHT22;49514;43.538;-5.708;2023-03-12T13:21:40;39.30;91.00
60234;DHT22;49514;43.538;-5.708;2023-03-12T13:24:27;40.10;77.60
60234;DHT22;49514;43.538;-5.708;2023-03-12T13:26:59;41.00;80.80
60234;DHT22;49514;43.538;-5.708;2023-03-12T13:31:54;42.40;69.70
60234;DHT22;49514;43.538;-5.708;2023-03-12T13:36:50;43.60;67.60
60234;DHT22;49514;43.538;-5.708;2023-03-12T13:41:55;44.70;66.60
60234;DHT22;49514;43.538;-5.708;2023-03-12T13:47:21;45.80;62.20
60234;DHT22;49514;43.538;-5.708;2023-03-12T13:50:12;46.10;60.70
60234;DHT22;49514;43.538;-5.708;2023-03-12T13:52:48;47.10;57.20
60234;DHT22;49514;43.538;-5.708;2023-03-12T13:55:28;46.00;53.60
60234;DHT22;49514;43.538;-5.708;2023-03-12T14:00:53;46.30;57.70
60234;DHT22;49514;43.538;-5.708;2023-03-12T14:11:11;45.80;54.00
60234;DHT22;49514;43.538;-5.708;2023-03-12T14:18:52;46.30;52.90
60234;DHT22;49514;43.538;-5.708;2023-03-12T14:21:20;47.10;52.30
60234;DHT22;49514;43.538;-5.708;2023-03-12T14:23:53;46.80;53.10
60234;DHT22;49514;43.538;-5.708;2023-03-12T14:26:37;46.70;50.10
60234;DHT22;49514;43.538;-5.708;2023-03-12T14:29:12;46.50;51.40
60234;DHT22;49514;43.538;-5.708;2023-03-12T14:31:40;46.40;52.50
60234;DHT22;49514;43.538;-5.708;2023-03-12T14:34:08;46.80;51.30
60234;DHT22;49514;43.538;-5.708;2023-03-12T14:36:43;47.20;51.90
60234;DHT22;49514;43.538;-5.708;2023-03-12T14:42:00;47.00;50.70
60234;DHT22;49514;43.538;-5.708;2023-03-12T14:44:30;46.90;50.10
60234;DHT22;49514;43.538;-5.708;2023-03-12T14:47:09;46.40;50.00
60234;DHT22;49514;43.538;-5.708;2023-03-12T14:49:44;45.50;50.50
60234;DHT22;49514;43.538;-5.708;2023-03-12T14:52:13;45.00;49.70
60234;DHT22;49514;43.538;-5.708;2023-03-12T14:54:57;44.50;50.10
60234;DHT22;49514;43.538;-5.708;2023-03-12T14:57:25;44.00;50.90
60234;DHT22;49514;43.538;-5.708;2023-03-12T14:59:59;43.20;49.40
60234;DHT22;49514;43.538;-5.708;2023-03-12T15:02:29;42.10;50.70
60234;DHT22;49514;43.538;-5.708;2023-03-12T15:04:59;41.10;50.90
60234;DHT22;49514;43.538;-5.708;2023-03-12T15:07:35;39.50;51.60
60234;DHT22;49514;43.538;-5.708;2023-03-12T15:10:15;39.30;52.20
60234;DHT22;49514;43.538;-5.708;2023-03-12T15:15:33;37.50;53.30
60234;DHT22;49514;43.538;-5.708;2023-03-12T15:18:20;36.70;54.80
60234;DHT22;49514;43.538;-5.708;2023-03-12T15:20:48;36.50;55.00
60234;DHT22;49514;43.538;-5.708;2023-03-12T15:23:17;36.00;55.30
60234;DHT22;49514;43.538;-5.708;2023-03-12T15:25:44;35.50;56.00
60234;DHT22;49514;43.538;-5.708;2023-03-12T15:30:41;33.90;57.10
60234;DHT22;49514;43.538;-5.708;2023-03-12T15:33:22;33.80;57.80
60234;DHT22;49514;43.538;-5.708;2023-03-12T15:36:04;32.80;59.10
60234;DHT22;49514;43.538;-5.708;2023-03-12T15:38:33;32.20;60.00
60234;DHT22;49514;43.538;-5.708;2023-03-12T15:41:07;31.60;60.80
60234;DHT22;49514;43.538;-5.708;2023-03-12T15:43:34;30.90;62.50
60234;DHT22;49514;43.538;-5.708;2023-03-12T15:46:04;30.50;62.20
60234;DHT22;49514;43.538;-5.708;2023-03-12T15:48:39;30.10;63.20
60234;DHT22;49514;43.538;-5.708;2023-03-12T15:51:14;29.70;64.20
60234;DHT22;49514;43.538;-5.708;2023-03-12T15:54:21;29.20;65.10
60234;DHT22;49514;43.538;-5.708;2023-03-12T15:56:45;28.60;66.00
60234;DHT22;49514;43.538;-5.708;2023-03-12T16:01:49;28.10;66.30
60234;DHT22;49514;43.538;-5.708;2023-03-12T16:04:17;28.00;68.00
60234;DHT22;49514;43.538;-5.708;2023-03-12T16:06:48;27.70;68.50
60234;DHT22;49514;43.538;-5.708;2023-03-12T16:09:18;27.50;69.60
60234;DHT22;49514;43.538;-5.708;2023-03-12T16:11:48;27.30;70.70
60234;DHT22;49514;43.538;-5.708;2023-03-12T16:14:28;26.90;72.80
60234;DHT22;49514;43.538;-5.708;2023-03-12T16:16:55;26.70;73.10
60234;DHT22;49514;43.538;-5.708;2023-03-12T16:19:28;26.60;73.00
60234;DHT22;49514;43.538;-5.708;2023-03-12T16:21:55;26.50;72.80
60234;DHT22;49514;43.538;-5.708;2023-03-12T16:24:22;26.20;73.80
60234;DHT22;49514;43.538;-5.708;2023-03-12T16:26:54;26.00;74.70
60234;DHT22;49514;43.538;-5.708;2023-03-12T16:29:36;25.70;75.00
60234;DHT22;49514;43.538;-5.708;2023-03-12T16:32:15;25.50;75.70
60234;DHT22;49514;43.538;-5.708;2023-03-12T16:34:44;25.50;76.00
60234;DHT22;49514;43.538;-5.708;2023-03-12T16:39:39;25.30;75.20
60234;DHT22;49514;43.538;-5.708;2023-03-12T16:42:14;25.20;75.60
60234;DHT22;49514;43.538;-5.708;2023-03-12T16:44:42;25.10;77.00
60234;DHT22;49514;43.538;-5.708;2023-03-12T16:47:13;24.90;78.50
60234;DHT22;49514;43.538;-5.708;2023-03-12T16:49:42;25.00;77.20
60234;DHT22;49514;43.538;-5.708;2023-03-12T16:52:18;24.90;78.80
60234;DHT22;49514;43.538;-5.708;2023-03-12T16:54:48;24.80;78.70
60234;DHT22;49514;43.538;-5.708;2023-03-12T16:57:26;24.80;78.70
60234;DHT22;49514;43.538;-5.708;2023-03-12T16:59:55;24.80;78.80
60234;DHT22;49514;43.538;-5.708;2023-03-12T17:02:23;24.70;78.00
60234;DHT22;49514;43.538;-5.708;2023-03-12T17:04:50;24.60;81.70
60234;DHT22;49514;43.538;-5.708;2023-03-12T17:07:19;24.40;80.20
60234;DHT22;49514;43.538;-5.708;2023-03-12T17:09:46;24.30;81.70
60234;DHT22;49514;43.538;-5.708;2023-03-12T17:14:51;24.00;84.00
60234;DHT22;49514;43.538;-5.708;2023-03-12T17:17:18;23.70;84.70
60234;DHT22;49514;43.538;-5.708;2023-03-12T17:22:12;23.50;92.30
60234;DHT22;49514;43.538;-5.708;2023-03-12T17:24:39;23.20;90.90
60234;DHT22;49514;43.538;-5.708;2023-03-12T17:27:06;23.00;91.60
60234;DHT22;49514;43.538;-5.708;2023-03-12T17:29:33;22.90;91.00
60234;DHT22;49514;43.538;-5.708;2023-03-12T17:31:59;22.80;92.80
60234;DHT22;49514;43.538;-5.708;2023-03-12T17:36:54;22.50;93.00
60234;DHT22;49514;43.538;-5.708;2023-03-12T17:39:20;22.50;94.60
60234;DHT22;49514;43.538;-5.708;2023-03-12T17:41:48;22.30;94.70